sensor_id;sensor_type;location;lat;lon;timestamp;pressure;altitude;pressure_sealevel;temperature;humidity
17450;BME280;8842;51.244;7.102;2022-07-05T00:01:33;99828.05;;;17.18;90.78
17450;BME280;8842;51.244;7.102;2022-07-05T00:11:49;99828.42;;;17.09;91.77
17450;BME280;8842;51.244;7.102;2022-07-05T00:16:53;99838.56;;;16.88;93.25
17450;BME280;8842;51.244;7.102;2022-07-05T00:27:08;99845.38;;;16.96;91.39
17450;BME280;8842;51.244;7.102;2022-07-05T00:37:25;99842.70;;;17.10;89.08
17450;BME280;8842;51.244;7.102;2022-07-05T00:47:45;99847.52;;;17.06;88.98
17450;BME280;8842;51.244;7.102;2022-07-05T00:58:11;99846.09;;;17.12;88.02
17450;BME280;8842;51.244;7.102;2022-07-05T01:13:40;99848.92;;;17.10;87.32
17450;BME280;8842;51.244;7.102;2022-07-05T01:18:45;99855.23;;;17.05;87.19
17450;BME280;8842;51.244;7.102;2022-07-05T01:29:04;99858.53;;;16.90;88.60
17450;BME280;8842;51.244;7.102;2022-07-05T01:39:21;99856.66;;;16.86;88.16
17450;BME280;8842;51.244;7.102;2022-07-05T01:49:40;99857.36;;;16.75;89.90
17450;BME280;8842;51.244;7.102;2022-07-05T02:05:09;99870.84;;;16.46;92.33
17450;BME280;8842;51.244;7.102;2022-07-05T02:15:25;99871.41;;;16.50;93.18
17450;BME280;8842;51.244;7.102;2022-07-05T02:25:41;99863.66;;;16.60;91.05
17450;BME280;8842;51.244;7.102;2022-07-05T02:35:59;99872.55;;;16.70;91.27
17450;BME280;8842;51.244;7.102;2022-07-05T02:46:17;99858.25;;;16.56;94.83
17450;BME280;8842;51.244;7.102;2022-07-05T02:56:34;99856.80;;;16.29;95.44
17450;BME280;8842;51.244;7.102;2022-07-05T03:06:50;99862.10;;;16.35;94.31
17450;BME280;8842;51.244;7.102;2022-07-05T03:17:05;99861.05;;;16.22;95.31
17450;BME280;8842;51.244;7.102;2022-07-05T03:27:21;99863.11;;;16.24;94.56
17450;BME280;8842;51.244;7.102;2022-07-05T03:37:36;99866.50;;;16.07;96.79
17450;BME280;8842;51.244;7.102;2022-07-05T03:47:57;99881.16;;;16.22;96.37
17450;BME280;8842;51.244;7.102;2022-07-05T03:58:13;99884.61;;;16.28;96.86
17450;BME280;8842;51.244;7.102;2022-07-05T04:08:28;99893.13;;;16.37;94.89
17450;BME280;8842;51.244;7.102;2022-07-05T04:18:47;99889.20;;;16.32;98.25
17450;BME280;8842;51.244;7.102;2022-07-05T04:29:03;99892.22;;;16.23;96.06
17450;BME280;8842;51.244;7.102;2022-07-05T04:44:31;99902.59;;;16.32;95.33
17450;BME280;8842;51.244;7.102;2022-07-05T04:49:35;99907.67;;;16.44;93.23
17450;BME280;8842;51.244;7.102;2022-07-05T04:59:51;99905.84;;;16.77;92.59
17450;BME280;8842;51.244;7.102;2022-07-05T05:10:08;99917.37;;;17.10;89.62
17450;BME280;8842;51.244;7.102;2022-07-05T05:20:25;99912.58;;;17.31;87.39
17450;BME280;8842;51.244;7.102;2022-07-05T05:41:04;99931.30;;;17.64;85.49
17450;BME280;8842;51.244;7.102;2022-07-05T05:51:20;99933.00;;;17.96;81.97
17450;BME280;8842;51.244;7.102;2022-07-05T06:01:36;99934.43;;;18.22;83.66
17450;BME280;8842;51.244;7.102;2022-07-05T06:11:52;99947.45;;;18.48;80.76
17450;BME280;8842;51.244;7.102;2022-07-05T06:22:07;99950.11;;;18.87;83.29
17450;BME280;8842;51.244;7.102;2022-07-05T06:32:24;99953.38;;;19.02;75.51
17450;BME280;8842;51.244;7.102;2022-07-05T06:37:40;99959.40;;;19.26;75.55
17450;BME280;8842;51.244;7.102;2022-07-05T06:47:56;99966.66;;;19.55;72.32
17450;BME280;8842;51.244;7.102;2022-07-05T06:53:01;99975.28;;;19.66;71.52
17450;BME280;8842;51.244;7.102;2022-07-05T07:03:16;99984.64;;;19.92;69.28
17450;BME280;8842;51.244;7.102;2022-07-05T07:13:31;99989.75;;;20.07;69.26
17450;BME280;8842;51.244;7.102;2022-07-05T07:23:46;99988.48;;;20.35;68.63
17450;BME280;8842;51.244;7.102;2022-07-05T07:28:50;99987.61;;;20.39;67.70
17450;BME280;8842;51.244;7.102;2022-07-05T07:39:07;99993.19;;;20.65;66.47
17450;BME280;8842;51.244;7.102;2022-07-05T07:49:24;99990.64;;;21.16;67.44
17450;BME280;8842;51.244;7.102;2022-07-05T07:54:28;99997.34;;;21.32;64.72
17450;BME280;8842;51.244;7.102;2022-07-05T08:04:44;99997.84;;;21.90;61.24
17450;BME280;8842;51.244;7.102;2022-07-05T08:09:49;100005.42;;;22.48;59.78
17450;BME280;8842;51.244;7.102;2022-07-05T08:14:56;100004.82;;;23.24;58.87
17450;BME280;8842;51.244;7.102;2022-07-05T08:20:00;100004.16;;;23.80;54.61
17450;BME280;8842;51.244;7.102;2022-07-05T08:25:23;100006.77;;;24.38;55.12
17450;BME280;8842;51.244;7.102;2022-07-05T08:30:27;100014.39;;;24.74;54.82
17450;BME280;8842;51.244;7.102;2022-07-05T08:35:31;100004.13;;;25.35;50.21
17450;BME280;8842;51.244;7.102;2022-07-05T08:45:50;99997.78;;;26.14;47.61
17450;BME280;8842;51.244;7.102;2022-07-05T08:56:08;99999.08;;;25.84;48.88
17450;BME280;8842;51.244;7.102;2022-07-05T09:06:25;99998.43;;;25.41;50.96
17450;BME280;8842;51.244;7.102;2022-07-05T09:16:46;100006.13;;;25.72;50.50
17450;BME280;8842;51.244;7.102;2022-07-05T09:27:04;100016.71;;;25.71;48.11
17450;BME280;8842;51.244;7.102;2022-07-05T09:37:21;100005.72;;;25.92;47.80
17450;BME280;8842;51.244;7.102;2022-07-05T09:47:39;100017.48;;;25.82;48.27
17450;BME280;8842;51.244;7.102;2022-07-05T09:52:43;100001.55;;;25.72;50.41
17450;BME280;8842;51.244;7.102;2022-07-05T09:57:48;100010.64;;;26.09;47.75
17450;BME280;8842;51.244;7.102;2022-07-05T10:08:07;100010.64;;;25.52;48.83
17450;BME280;8842;51.244;7.102;2022-07-05T10:18:23;100004.36;;;25.92;49.58
17450;BME280;8842;51.244;7.102;2022-07-05T10:28:44;100005.28;;;25.88;48.21
17450;BME280;8842;51.244;7.102;2022-07-05T10:39:02;100020.04;;;24.02;53.54
17450;BME280;8842;51.244;7.102;2022-07-05T10:49:19;100002.33;;;26.00;50.23
17450;BME280;8842;51.244;7.102;2022-07-05T11:00:05;100004.19;;;26.60;47.80
17450;BME280;8842;51.244;7.102;2022-07-05T11:10:20;99998.75;;;26.00;46.97
17450;BME280;8842;51.244;7.102;2022-07-05T11:20:36;99996.01;;;26.17;46.24
17450;BME280;8842;51.244;7.102;2022-07-05T11:30:56;99994.83;;;26.52;49.06
17450;BME280;8842;51.244;7.102;2022-07-05T11:41:14;99982.93;;;26.23;45.44
17450;BME280;8842;51.244;7.102;2022-07-05T11:51:31;99984.08;;;26.74;44.39
17450;BME280;8842;51.244;7.102;2022-07-05T11:56:36;99976.09;;;25.76;45.66
17450;BME280;8842;51.244;7.102;2022-07-05T12:06:55;99962.84;;;26.07;48.43
17450;BME280;8842;51.244;7.102;2022-07-05T12:17:15;99971.77;;;25.64;47.74
17450;BME280;8842;51.244;7.102;2022-07-05T12:27:35;99970.69;;;25.42;47.53
17450;BME280;8842;51.244;7.102;2022-07-05T12:38:08;99965.40;;;24.78;49.40
17450;BME280;8842;51.244;7.102;2022-07-05T12:48:31;99967.15;;;24.75;54.54
17450;BME280;8842;51.244;7.102;2022-07-05T12:58:51;99966.09;;;24.13;55.06
17450;BME280;8842;51.244;7.102;2022-07-05T13:09:30;99963.20;;;23.75;51.33
17450;BME280;8842;51.244;7.102;2022-07-05T13:19:48;99956.99;;;23.71;51.63
17450;BME280;8842;51.244;7.102;2022-07-05T13:30:05;99957.10;;;23.48;51.74
17450;BME280;8842;51.244;7.102;2022-07-05T13:40:22;99961.40;;;23.57;50.41
17450;BME280;8842;51.244;7.102;2022-07-05T13:50:37;99959.73;;;23.96;51.04
17450;BME280;8842;51.244;7.102;2022-07-05T13:55:42;99966.53;;;24.06;49.47
17450;BME280;8842;51.244;7.102;2022-07-05T14:05:59;99955.47;;;23.93;50.64
17450;BME280;8842;51.244;7.102;2022-07-05T14:16:15;99947.20;;;23.40;49.42
17450;BME280;8842;51.244;7.102;2022-07-05T14:21:19;99940.17;;;23.46;51.19
17450;BME280;8842;51.244;7.102;2022-07-05T14:31:35;99942.42;;;23.28;51.36
17450;BME280;8842;51.244;7.102;2022-07-05T14:41:51;99935.87;;;23.37;52.60
17450;BME280;8842;51.244;7.102;2022-07-05T14:52:07;99936.58;;;23.49;52.29
17450;BME280;8842;51.244;7.102;2022-07-05T15:02:23;99929.70;;;23.68;51.08
17450;BME280;8842;51.244;7.102;2022-07-05T15:12:39;99922.06;;;23.82;52.86
17450;BME280;8842;51.244;7.102;2022-07-05T15:22:55;99922.17;;;23.74;54.27
17450;BME280;8842;51.244;7.102;2022-07-05T15:33:11;99923.30;;;23.80;54.67
17450;BME280;8842;51.244;7.102;2022-07-05T15:43:26;99937.48;;;23.96;55.95
17450;BME280;8842;51.244;7.102;2022-07-05T15:53:43;99930.82;;;23.34;56.65
17450;BME280;8842;51.244;7.102;2022-07-05T16:03:59;99934.68;;;23.06;56.69
17450;BME280;8842;51.244;7.102;2022-07-05T16:14:15;99934.13;;;23.11;58.53
17450;BME280;8842;51.244;7.102;2022-07-05T16:19:19;99929.87;;;22.98;57.86
17450;BME280;8842;51.244;7.102;2022-07-05T16:29:34;99933.98;;;22.75;58.88
17450;BME280;8842;51.244;7.102;2022-07-05T16:39:50;99930.33;;;22.68;59.59
17450;BME280;8842;51.244;7.102;2022-07-05T16:50:08;99937.11;;;22.68;60.60
17450;BME280;8842;51.244;7.102;2022-07-05T16:55:12;99936.22;;;22.53;59.81
17450;BME280;8842;51.244;7.102;2022-07-05T17:05:28;99947.53;;;22.30;60.35
17450;BME280;8842;51.244;7.102;2022-07-05T17:15:45;99949.77;;;22.27;62.21
17450;BME280;8842;51.244;7.102;2022-07-05T17:26:01;99961.32;;;22.17;62.61
17450;BME280;8842;51.244;7.102;2022-07-05T17:31:06;99966.77;;;22.13;61.73
17450;BME280;8842;51.244;7.102;2022-07-05T17:41:24;99968.94;;;21.91;63.94
17450;BME280;8842;51.244;7.102;2022-07-05T17:56:51;99987.59;;;21.69;64.00
17450;BME280;8842;51.244;7.102;2022-07-05T18:01:56;99989.70;;;21.55;63.60
17450;BME280;8842;51.244;7.102;2022-07-05T18:07:00;99995.14;;;21.43;64.16
17450;BME280;8842;51.244;7.102;2022-07-05T18:17:17;100000.56;;;21.35;62.81
17450;BME280;8842;51.244;7.102;2022-07-05T18:27:33;100008.89;;;21.10;63.74
17450;BME280;8842;51.244;7.102;2022-07-05T18:37:48;100015.12;;;20.90;63.41
17450;BME280;8842;51.244;7.102;2022-07-05T18:42:53;100013.61;;;20.76;64.03
17450;BME280;8842;51.244;7.102;2022-07-05T18:58:20;100027.79;;;20.66;63.50
17450;BME280;8842;51.244;7.102;2022-07-05T19:08:37;100029.27;;;20.40;63.33
17450;BME280;8842;51.244;7.102;2022-07-05T19:19:11;100033.30;;;20.24;62.19
17450;BME280;8842;51.244;7.102;2022-07-05T19:24:15;100040.05;;;20.24;62.49
17450;BME280;8842;51.244;7.102;2022-07-05T19:34:31;100044.46;;;19.92;64.84
17450;BME280;8842;51.244;7.102;2022-07-05T19:39:35;100050.65;;;19.76;63.97
17450;BME280;8842;51.244;7.102;2022-07-05T19:44:40;100053.39;;;19.54;63.58
17450;BME280;8842;51.244;7.102;2022-07-05T19:49:44;100060.61;;;19.54;63.20
17450;BME280;8842;51.244;7.102;2022-07-05T19:59:59;100070.25;;;19.31;64.76
17450;BME280;8842;51.244;7.102;2022-07-05T20:05:05;100078.94;;;19.25;64.35
17450;BME280;8842;51.244;7.102;2022-07-05T20:15:22;100099.22;;;19.15;65.89
17450;BME280;8842;51.244;7.102;2022-07-05T20:25:38;100098.94;;;19.01;66.47
17450;BME280;8842;51.244;7.102;2022-07-05T20:35:55;100096.70;;;18.75;67.56
17450;BME280;8842;51.244;7.102;2022-07-05T20:46:10;100117.95;;;18.64;67.77
17450;BME280;8842;51.244;7.102;2022-07-05T20:56:25;100119.42;;;18.59;68.55
17450;BME280;8842;51.244;7.102;2022-07-05T21:06:41;100124.40;;;18.54;68.21
17450;BME280;8842;51.244;7.102;2022-07-05T21:16:57;100143.88;;;18.52;68.16
17450;BME280;8842;51.244;7.102;2022-07-05T21:27:17;100154.64;;;18.38;69.43
17450;BME280;8842;51.244;7.102;2022-07-05T21:37:33;100176.50;;;18.26;73.51
17450;BME280;8842;51.244;7.102;2022-07-05T21:47:49;100185.75;;;18.14;77.49
17450;BME280;8842;51.244;7.102;2022-07-05T21:58:05;100196.04;;;18.05;77.00
17450;BME280;8842;51.244;7.102;2022-07-05T22:08:21;100215.05;;;17.94;78.99
17450;BME280;8842;51.244;7.102;2022-07-05T22:18:36;100214.30;;;17.78;79.08
17450;BME280;8842;51.244;7.102;2022-07-05T22:28:55;100213.54;;;17.62;79.54
17450;BME280;8842;51.244;7.102;2022-07-05T22:39:11;100230.08;;;17.39;79.59
17450;BME280;8842;51.244;7.102;2022-07-05T22:49:26;100227.54;;;17.18;79.79
17450;BME280;8842;51.244;7.102;2022-07-05T22:59:43;100222.64;;;16.99;81.95
17450;BME280;8842;51.244;7.102;2022-07-05T23:09:59;100223.34;;;16.82;83.44
17450;BME280;8842;51.244;7.102;2022-07-05T23:20:19;100224.83;;;16.56;83.96
17450;BME280;8842;51.244;7.102;2022-07-05T23:30:35;100221.50;;;16.18;85.80
17450;BME280;8842;51.244;7.102;2022-07-05T23:40:51;100231.39;;;15.82;88.38
17450;BME280;8842;51.244;7.102;2022-07-05T23:51:08;100230.23;;;15.54;90.42
